sensor_id;sensor_type;location;lat;lon;timestamp;P1;durP1;ratioP1;P2;durP2;ratioP2
5414;SDS011;2730;51.512;7.504;2023-04-15T00:00:05;18.30;;;8.73;;
5414;SDS011;2730;51.512;7.504;2023-04-15T00:02:34;21.70;;;8.05;;
5414;SDS011;2730;51.512;7.504;2023-04-15T00:05:01;17.63;;;8.57;;
5414;SDS011;2730;51.512;7.504;2023-04-15T00:07:28;16.10;;;9.15;;
5414;SDS011;2730;51.512;7.504;2023-04-15T00:09:55;16.27;;;9.77;;
5414;SDS011;2730;51.512;7.504;2023-04-15T00:12:24;16.92;;;8.98;;
5414;SDS011;2730;51.512;7.504;2023-04-15T00:14:51;14.38;;;7.82;;
5414;SDS011;2730;51.512;7.504;2023-04-15T00:17:18;17.30;;;8.30;;
5414;SDS011;2730;51.512;7.504;2023-04-15T00:19:45;22.08;;;10.43;;
5414;SDS011;2730;51.512;7.504;2023-04-15T00:22:12;14.13;;;9.02;;
5414;SDS011;2730;51.512;7.504;2023-04-15T00:24:39;12.43;;;7.47;;
5414;SDS011;2730;51.512;7.504;2023-04-15T00:27:07;17.92;;;10.35;;
5414;SDS011;2730;51.512;7.504;2023-04-15T00:29:35;16.75;;;9.35;;
5414;SDS011;2730;51.512;7.504;2023-04-15T00:32:01;18.40;;;9.25;;
5414;SDS011;2730;51.512;7.504;2023-04-15T00:34:29;24.30;;;9.98;;
5414;SDS011;2730;51.512;7.504;2023-04-15T00:36:56;15.90;;;8.85;;
5414;SDS011;2730;51.512;7.504;2023-04-15T00:39:23;14.45;;;8.32;;
5414;SDS011;2730;51.512;7.504;2023-04-15T00:41:50;14.80;;;8.00;;
5414;SDS011;2730;51.512;7.504;2023-04-15T00:44:18;15.65;;;8.50;;
5414;SDS011;2730;51.512;7.504;2023-04-15T00:46:46;16.55;;;9.75;;
5414;SDS011;2730;51.512;7.504;2023-04-15T00:49:15;15.27;;;9.07;;
5414;SDS011;2730;51.512;7.504;2023-04-15T00:51:43;12.35;;;8.60;;
5414;SDS011;2730;51.512;7.504;2023-04-15T00:54:10;12.68;;;8.60;;
5414;SDS011;2730;51.512;7.504;2023-04-15T00:56:37;17.73;;;8.60;;
5414;SDS011;2730;51.512;7.504;2023-04-15T00:59:05;13.52;;;8.50;;
5414;SDS011;2730;51.512;7.504;2023-04-15T01:01:32;17.73;;;10.23;;
5414;SDS011;2730;51.512;7.504;2023-04-15T01:04:01;15.88;;;8.68;;
5414;SDS011;2730;51.512;7.504;2023-04-15T01:06:29;14.40;;;9.07;;
5414;SDS011;2730;51.512;7.504;2023-04-15T01:08:56;16.02;;;9.13;;
5414;SDS011;2730;51.512;7.504;2023-04-15T01:11:23;16.60;;;9.25;;
5414;SDS011;2730;51.512;7.504;2023-04-15T01:13:50;17.42;;;9.20;;
5414;SDS011;2730;51.512;7.504;2023-04-15T01:16:17;16.17;;;8.95;;
5414;SDS011;2730;51.512;7.504;2023-04-15T01:18:45;17.23;;;9.38;;
5414;SDS011;2730;51.512;7.504;2023-04-15T01:21:13;20.73;;;9.35;;
5414;SDS011;2730;51.512;7.504;2023-04-15T01:23:40;23.95;;;8.85;;
5414;SDS011;2730;51.512;7.504;2023-04-15T01:26:08;24.73;;;10.80;;
5414;SDS011;2730;51.512;7.504;2023-04-15T01:28:36;13.82;;;8.90;;
5414;SDS011;2730;51.512;7.504;2023-04-15T01:31:07;21.95;;;10.10;;
5414;SDS011;2730;51.512;7.504;2023-04-15T01:33:34;22.10;;;11.77;;
5414;SDS011;2730;51.512;7.504;2023-04-15T01:36:02;12.80;;;8.98;;
5414;SDS011;2730;51.512;7.504;2023-04-15T01:38:29;19.95;;;10.30;;
5414;SDS011;2730;51.512;7.504;2023-04-15T01:40:57;18.45;;;9.25;;
5414;SDS011;2730;51.512;7.504;2023-04-15T01:43:25;19.67;;;9.85;;
5414;SDS011;2730;51.512;7.504;2023-04-15T01:45:53;17.75;;;11.55;;
5414;SDS011;2730;51.512;7.504;2023-04-15T01:48:20;22.10;;;12.10;;
5414;SDS011;2730;51.512;7.504;2023-04-15T01:50:47;18.15;;;10.25;;
5414;SDS011;2730;51.512;7.504;2023-04-15T01:53:14;17.77;;;12.05;;
5414;SDS011;2730;51.512;7.504;2023-04-15T01:55:40;16.20;;;10.55;;
5414;SDS011;2730;51.512;7.504;2023-04-15T01:58:07;22.90;;;11.68;;
5414;SDS011;2730;51.512;7.504;2023-04-15T02:00:35;22.15;;;10.95;;
5414;SDS011;2730;51.512;7.504;2023-04-15T02:03:02;19.88;;;11.02;;
5414;SDS011;2730;51.512;7.504;2023-04-15T02:05:30;22.98;;;12.75;;
5414;SDS011;2730;51.512;7.504;2023-04-15T02:07:57;19.75;;;10.80;;
5414;SDS011;2730;51.512;7.504;2023-04-15T02:10:24;18.40;;;11.40;;
5414;SDS011;2730;51.512;7.504;2023-04-15T02:12:51;25.05;;;12.02;;
5414;SDS011;2730;51.512;7.504;2023-04-15T02:15:18;25.20;;;10.90;;
5414;SDS011;2730;51.512;7.504;2023-04-15T02:17:46;22.73;;;12.63;;
5414;SDS011;2730;51.512;7.504;2023-04-15T02:20:15;25.23;;;11.38;;
5414;SDS011;2730;51.512;7.504;2023-04-15T02:22:42;19.38;;;11.25;;
5414;SDS011;2730;51.512;7.504;2023-04-15T02:25:09;26.75;;;11.10;;
5414;SDS011;2730;51.512;7.504;2023-04-15T02:27:36;22.90;;;11.38;;
5414;SDS011;2730;51.512;7.504;2023-04-15T02:30:03;26.20;;;11.43;;
5414;SDS011;2730;51.512;7.504;2023-04-15T02:32:31;21.67;;;12.52;;
5414;SDS011;2730;51.512;7.504;2023-04-15T02:35:02;22.40;;;11.77;;
5414;SDS011;2730;51.512;7.504;2023-04-15T02:37:29;18.85;;;10.70;;
5414;SDS011;2730;51.512;7.504;2023-04-15T02:39:56;21.25;;;11.57;;
5414;SDS011;2730;51.512;7.504;2023-04-15T02:42:25;28.35;;;11.32;;
5414;SDS011;2730;51.512;7.504;2023-04-15T02:44:52;27.88;;;12.15;;
5414;SDS011;2730;51.512;7.504;2023-04-15T02:47:19;22.80;;;12.65;;
5414;SDS011;2730;51.512;7.504;2023-04-15T02:49:47;19.77;;;10.55;;
5414;SDS011;2730;51.512;7.504;2023-04-15T02:52:15;17.48;;;11.18;;
5414;SDS011;2730;51.512;7.504;2023-04-15T02:54:42;22.50;;;11.35;;
5414;SDS011;2730;51.512;7.504;2023-04-15T02:57:09;28.35;;;12.57;;
5414;SDS011;2730;51.512;7.504;2023-04-15T02:59:36;21.15;;;11.75;;
5414;SDS011;2730;51.512;7.504;2023-04-15T03:02:03;21.75;;;11.48;;
5414;SDS011;2730;51.512;7.504;2023-04-15T03:04:31;23.30;;;11.93;;
5414;SDS011;2730;51.512;7.504;2023-04-15T03:06:58;20.92;;;11.32;;
5414;SDS011;2730;51.512;7.504;2023-04-15T03:09:27;31.90;;;11.30;;
5414;SDS011;2730;51.512;7.504;2023-04-15T03:11:54;23.30;;;10.90;;
5414;SDS011;2730;51.512;7.504;2023-04-15T03:14:21;21.88;;;11.45;;
5414;SDS011;2730;51.512;7.504;2023-04-15T03:16:47;23.30;;;11.25;;
5414;SDS011;2730;51.512;7.504;2023-04-15T03:19:16;34.22;;;13.07;;
5414;SDS011;2730;51.512;7.504;2023-04-15T03:21:42;22.75;;;11.50;;
5414;SDS011;2730;51.512;7.504;2023-04-15T03:24:09;23.73;;;10.90;;
5414;SDS011;2730;51.512;7.504;2023-04-15T03:26:37;24.63;;;12.20;;
5414;SDS011;2730;51.512;7.504;2023-04-15T03:29:04;21.13;;;11.27;;
5414;SDS011;2730;51.512;7.504;2023-04-15T03:31:31;20.52;;;12.20;;
5414;SDS011;2730;51.512;7.504;2023-04-15T03:33:58;25.55;;;11.90;;
5414;SDS011;2730;51.512;7.504;2023-04-15T03:36:26;19.95;;;11.63;;
5414;SDS011;2730;51.512;7.504;2023-04-15T03:38:54;23.80;;;12.15;;
5414;SDS011;2730;51.512;7.504;2023-04-15T03:41:21;19.15;;;11.30;;
5414;SDS011;2730;51.512;7.504;2023-04-15T03:43:50;21.17;;;10.38;;
5414;SDS011;2730;51.512;7.504;2023-04-15T03:46:16;23.48;;;11.57;;
5414;SDS011;2730;51.512;7.504;2023-04-15T03:48:43;22.52;;;12.07;;
5414;SDS011;2730;51.512;7.504;2023-04-15T03:51:10;22.17;;;12.05;;
5414;SDS011;2730;51.512;7.504;2023-04-15T03:53:37;25.45;;;11.55;;
5414;SDS011;2730;51.512;7.504;2023-04-15T03:56:04;25.65;;;12.50;;
5414;SDS011;2730;51.512;7.504;2023-04-15T03:58:31;19.33;;;12.18;;
5414;SDS011;2730;51.512;7.504;2023-04-15T04:00:59;19.27;;;11.98;;
5414;SDS011;2730;51.512;7.504;2023-04-15T04:03:26;21.00;;;11.93;;
5414;SDS011;2730;51.512;7.504;2023-04-15T04:05:52;25.38;;;12.45;;
5414;SDS011;2730;51.512;7.504;2023-04-15T04:08:19;23.58;;;12.85;;
5414;SDS011;2730;51.512;7.504;2023-04-15T04:10:46;26.90;;;11.93;;
5414;SDS011;2730;51.512;7.504;2023-04-15T04:13:13;21.80;;;13.88;;
5414;SDS011;2730;51.512;7.504;2023-04-15T04:15:39;27.27;;;12.60;;
5414;SDS011;2730;51.512;7.504;2023-04-15T04:18:08;25.23;;;12.90;;
5414;SDS011;2730;51.512;7.504;2023-04-15T04:20:35;23.48;;;12.07;;
5414;SDS011;2730;51.512;7.504;2023-04-15T04:23:02;24.35;;;12.23;;
5414;SDS011;2730;51.512;7.504;2023-04-15T04:25:28;32.95;;;12.65;;
5414;SDS011;2730;51.512;7.504;2023-04-15T04:27:56;25.98;;;13.32;;
5414;SDS011;2730;51.512;7.504;2023-04-15T04:30:22;21.08;;;10.98;;
5414;SDS011;2730;51.512;7.504;2023-04-15T04:32:49;32.15;;;11.65;;
5414;SDS011;2730;51.512;7.504;2023-04-15T04:35:18;26.60;;;12.75;;
5414;SDS011;2730;51.512;7.504;2023-04-15T04:37:44;25.30;;;12.55;;
5414;SDS011;2730;51.512;7.504;2023-04-15T04:40:11;22.73;;;12.35;;
5414;SDS011;2730;51.512;7.504;2023-04-15T04:42:38;21.02;;;12.45;;
5414;SDS011;2730;51.512;7.504;2023-04-15T04:45:06;25.50;;;13.10;;
5414;SDS011;2730;51.512;7.504;2023-04-15T04:47:33;27.70;;;13.80;;
5414;SDS011;2730;51.512;7.504;2023-04-15T04:50:00;23.63;;;11.82;;
5414;SDS011;2730;51.512;7.504;2023-04-15T04:52:28;21.73;;;12.82;;
5414;SDS011;2730;51.512;7.504;2023-04-15T04:54:55;24.50;;;11.60;;
5414;SDS011;2730;51.512;7.504;2023-04-15T04:57:22;22.13;;;12.18;;
5414;SDS011;2730;51.512;7.504;2023-04-15T04:59:49;22.25;;;11.73;;
5414;SDS011;2730;51.512;7.504;2023-04-15T05:02:15;22.50;;;12.90;;
5414;SDS011;2730;51.512;7.504;2023-04-15T05:04:42;25.40;;;13.38;;
5414;SDS011;2730;51.512;7.504;2023-04-15T05:07:09;23.83;;;13.32;;
5414;SDS011;2730;51.512;7.504;2023-04-15T05:09:37;27.02;;;12.00;;
5414;SDS011;2730;51.512;7.504;2023-04-15T05:12:04;26.70;;;12.93;;
5414;SDS011;2730;51.512;7.504;2023-04-15T05:14:31;18.73;;;11.00;;
5414;SDS011;2730;51.512;7.504;2023-04-15T05:16:58;18.20;;;10.10;;
5414;SDS011;2730;51.512;7.504;2023-04-15T05:19:25;26.65;;;13.43;;
5414;SDS011;2730;51.512;7.504;2023-04-15T05:21:52;21.02;;;11.50;;
5414;SDS011;2730;51.512;7.504;2023-04-15T05:24:18;26.92;;;12.20;;
5414;SDS011;2730;51.512;7.504;2023-04-15T05:26:46;18.95;;;10.65;;
5414;SDS011;2730;51.512;7.504;2023-04-15T05:29:13;17.55;;;10.85;;
5414;SDS011;2730;51.512;7.504;2023-04-15T05:31:40;27.83;;;12.50;;
5414;SDS011;2730;51.512;7.504;2023-04-15T05:34:07;23.50;;;12.20;;
5414;SDS011;2730;51.512;7.504;2023-04-15T05:36:35;22.45;;;13.45;;
5414;SDS011;2730;51.512;7.504;2023-04-15T05:39:02;19.55;;;11.75;;
5414;SDS011;2730;51.512;7.504;2023-04-15T05:41:29;19.52;;;11.82;;
5414;SDS011;2730;51.512;7.504;2023-04-15T05:43:57;22.60;;;12.05;;
5414;SDS011;2730;51.512;7.504;2023-04-15T05:46:24;21.98;;;12.23;;
5414;SDS011;2730;51.512;7.504;2023-04-15T05:48:51;22.27;;;12.25;;
5414;SDS011;2730;51.512;7.504;2023-04-15T05:51:18;24.45;;;11.75;;
5414;SDS011;2730;51.512;7.504;2023-04-15T05:53:45;19.73;;;12.15;;
5414;SDS011;2730;51.512;7.504;2023-04-15T05:56:12;20.48;;;11.20;;
5414;SDS011;2730;51.512;7.504;2023-04-15T05:58:38;20.83;;;10.85;;
5414;SDS011;2730;51.512;7.504;2023-04-15T06:01:07;16.10;;;10.13;;
5414;SDS011;2730;51.512;7.504;2023-04-15T06:03:33;22.65;;;12.00;;
5414;SDS011;2730;51.512;7.504;2023-04-15T06:06:00;20.48;;;11.43;;
5414;SDS011;2730;51.512;7.504;2023-04-15T06:08:27;18.05;;;10.90;;
5414;SDS011;2730;51.512;7.504;2023-04-15T06:10:54;20.80;;;10.90;;
5414;SDS011;2730;51.512;7.504;2023-04-15T06:13:21;24.10;;;11.88;;
5414;SDS011;2730;51.512;7.504;2023-04-15T06:15:48;24.10;;;12.65;;
5414;SDS011;2730;51.512;7.504;2023-04-15T06:18:16;23.80;;;12.50;;
5414;SDS011;2730;51.512;7.504;2023-04-15T06:20:43;16.20;;;10.50;;
5414;SDS011;2730;51.512;7.504;2023-04-15T06:23:09;19.88;;;11.40;;
5414;SDS011;2730;51.512;7.504;2023-04-15T06:25:36;18.73;;;10.73;;
5414;SDS011;2730;51.512;7.504;2023-04-15T06:28:03;21.67;;;10.30;;
5414;SDS011;2730;51.512;7.504;2023-04-15T06:30:30;24.73;;;12.23;;
5414;SDS011;2730;51.512;7.504;2023-04-15T06:32:57;19.25;;;10.75;;
5414;SDS011;2730;51.512;7.504;2023-04-15T06:35:25;18.77;;;11.38;;
5414;SDS011;2730;51.512;7.504;2023-04-15T06:37:52;19.48;;;11.40;;
5414;SDS011;2730;51.512;7.504;2023-04-15T06:40:19;17.55;;;10.55;;
5414;SDS011;2730;51.512;7.504;2023-04-15T06:42:46;21.10;;;12.57;;
5414;SDS011;2730;51.512;7.504;2023-04-15T06:45:12;21.65;;;11.63;;
5414;SDS011;2730;51.512;7.504;2023-04-15T06:47:40;22.42;;;11.50;;
5414;SDS011;2730;51.512;7.504;2023-04-15T06:50:07;21.15;;;11.30;;
5414;SDS011;2730;51.512;7.504;2023-04-15T06:52:36;16.85;;;9.98;;
5414;SDS011;2730;51.512;7.504;2023-04-15T06:55:03;26.70;;;11.45;;
5414;SDS011;2730;51.512;7.504;2023-04-15T06:57:31;20.25;;;12.73;;
5414;SDS011;2730;51.512;7.504;2023-04-15T06:59:58;18.35;;;11.85;;
5414;SDS011;2730;51.512;7.504;2023-04-15T07:02:25;18.17;;;10.50;;
5414;SDS011;2730;51.512;7.504;2023-04-15T07:04:52;22.65;;;11.32;;
5414;SDS011;2730;51.512;7.504;2023-04-15T07:07:19;22.08;;;11.68;;
5414;SDS011;2730;51.512;7.504;2023-04-15T07:09:47;20.92;;;12.32;;
5414;SDS011;2730;51.512;7.504;2023-04-15T07:12:14;19.15;;;10.40;;
5414;SDS011;2730;51.512;7.504;2023-04-15T07:14:41;19.98;;;11.40;;
5414;SDS011;2730;51.512;7.504;2023-04-15T07:17:08;20.65;;;11.90;;
5414;SDS011;2730;51.512;7.504;2023-04-15T07:19:35;22.02;;;11.13;;
5414;SDS011;2730;51.512;7.504;2023-04-15T07:22:02;17.90;;;10.05;;
5414;SDS011;2730;51.512;7.504;2023-04-15T07:24:29;22.00;;;11.45;;
5414;SDS011;2730;51.512;7.504;2023-04-15T07:26:57;19.00;;;11.52;;
5414;SDS011;2730;51.512;7.504;2023-04-15T07:29:24;26.70;;;10.98;;
5414;SDS011;2730;51.512;7.504;2023-04-15T07:31:51;15.85;;;10.38;;
5414;SDS011;2730;51.512;7.504;2023-04-15T07:34:18;16.77;;;10.65;;
5414;SDS011;2730;51.512;7.504;2023-04-15T07:36:45;15.85;;;9.52;;
5414;SDS011;2730;51.512;7.504;2023-04-15T07:39:14;15.82;;;9.90;;
5414;SDS011;2730;51.512;7.504;2023-04-15T07:41:41;24.75;;;11.48;;
5414;SDS011;2730;51.512;7.504;2023-04-15T07:44:09;16.73;;;9.63;;
5414;SDS011;2730;51.512;7.504;2023-04-15T07:46:36;15.38;;;9.40;;
5414;SDS011;2730;51.512;7.504;2023-04-15T07:49:03;17.58;;;10.70;;
5414;SDS011;2730;51.512;7.504;2023-04-15T07:51:30;16.13;;;9.50;;
5414;SDS011;2730;51.512;7.504;2023-04-15T07:53:57;19.63;;;9.77;;
5414;SDS011;2730;51.512;7.504;2023-04-15T07:56:24;17.45;;;10.93;;
5414;SDS011;2730;51.512;7.504;2023-04-15T07:58:51;21.08;;;9.27;;
5414;SDS011;2730;51.512;7.504;2023-04-15T08:01:19;19.75;;;9.63;;
5414;SDS011;2730;51.512;7.504;2023-04-15T08:03:46;14.82;;;8.88;;
5414;SDS011;2730;51.512;7.504;2023-04-15T08:06:13;13.80;;;8.13;;
5414;SDS011;2730;51.512;7.504;2023-04-15T08:08:40;14.75;;;8.70;;
5414;SDS011;2730;51.512;7.504;2023-04-15T08:11:07;14.35;;;8.23;;
5414;SDS011;2730;51.512;7.504;2023-04-15T08:13:34;12.38;;;7.93;;
5414;SDS011;2730;51.512;7.504;2023-04-15T08:16:15;11.68;;;8.10;;
5414;SDS011;2730;51.512;7.504;2023-04-15T08:18:45;11.05;;;7.30;;
5414;SDS011;2730;51.512;7.504;2023-04-15T08:21:11;12.77;;;6.75;;
5414;SDS011;2730;51.512;7.504;2023-04-15T08:23:38;12.32;;;6.35;;
5414;SDS011;2730;51.512;7.504;2023-04-15T08:26:06;17.42;;;8.55;;
5414;SDS011;2730;51.512;7.504;2023-04-15T08:28:34;13.85;;;6.65;;
5414;SDS011;2730;51.512;7.504;2023-04-15T08:31:00;12.80;;;7.07;;
5414;SDS011;2730;51.512;7.504;2023-04-15T08:33:27;11.95;;;7.20;;
5414;SDS011;2730;51.512;7.504;2023-04-15T08:35:56;10.52;;;6.50;;
5414;SDS011;2730;51.512;7.504;2023-04-15T08:38:22;14.88;;;7.63;;
5414;SDS011;2730;51.512;7.504;2023-04-15T08:40:49;12.13;;;7.32;;
5414;SDS011;2730;51.512;7.504;2023-04-15T08:43:18;14.23;;;7.85;;
5414;SDS011;2730;51.512;7.504;2023-04-15T08:45:48;11.80;;;6.10;;
5414;SDS011;2730;51.512;7.504;2023-04-15T08:48:16;9.75;;;6.63;;
5414;SDS011;2730;51.512;7.504;2023-04-15T08:50:43;12.27;;;6.97;;
5414;SDS011;2730;51.512;7.504;2023-04-15T08:53:11;13.20;;;5.95;;
5414;SDS011;2730;51.512;7.504;2023-04-15T08:55:40;12.05;;;6.90;;
5414;SDS011;2730;51.512;7.504;2023-04-15T08:58:10;17.17;;;7.18;;
5414;SDS011;2730;51.512;7.504;2023-04-15T09:00:37;11.68;;;7.25;;
5414;SDS011;2730;51.512;7.504;2023-04-15T09:03:04;11.32;;;7.15;;
5414;SDS011;2730;51.512;7.504;2023-04-15T09:05:31;12.98;;;6.72;;
5414;SDS011;2730;51.512;7.504;2023-04-15T09:07:59;10.65;;;7.28;;
5414;SDS011;2730;51.512;7.504;2023-04-15T09:10:27;10.85;;;6.97;;
5414;SDS011;2730;51.512;7.504;2023-04-15T09:12:54;10.55;;;6.78;;
5414;SDS011;2730;51.512;7.504;2023-04-15T09:15:22;13.40;;;7.50;;
5414;SDS011;2730;51.512;7.504;2023-04-15T09:17:51;10.43;;;6.78;;
5414;SDS011;2730;51.512;7.504;2023-04-15T09:20:18;11.55;;;7.25;;
5414;SDS011;2730;51.512;7.504;2023-04-15T09:22:46;10.32;;;6.53;;
5414;SDS011;2730;51.512;7.504;2023-04-15T09:25:28;12.52;;;6.00;;
5414;SDS011;2730;51.512;7.504;2023-04-15T09:27:55;10.57;;;6.88;;
5414;SDS011;2730;51.512;7.504;2023-04-15T09:30:23;9.57;;;7.10;;
5414;SDS011;2730;51.512;7.504;2023-04-15T09:32:50;10.80;;;7.13;;
5414;SDS011;2730;51.512;7.504;2023-04-15T09:35:18;12.57;;;7.63;;
5414;SDS011;2730;51.512;7.504;2023-04-15T09:37:46;12.95;;;8.15;;
5414;SDS011;2730;51.512;7.504;2023-04-15T09:40:13;11.13;;;7.65;;
5414;SDS011;2730;51.512;7.504;2023-04-15T09:42:54;15.45;;;9.32;;
5414;SDS011;2730;51.512;7.504;2023-04-15T09:45:21;12.80;;;9.15;;
5414;SDS011;2730;51.512;7.504;2023-04-15T09:47:49;17.13;;;9.40;;
5414;SDS011;2730;51.512;7.504;2023-04-15T09:50:17;12.95;;;8.57;;
5414;SDS011;2730;51.512;7.504;2023-04-15T09:52:44;14.20;;;9.60;;
5414;SDS011;2730;51.512;7.504;2023-04-15T09:55:12;13.50;;;8.90;;
5414;SDS011;2730;51.512;7.504;2023-04-15T09:57:40;13.55;;;9.07;;
5414;SDS011;2730;51.512;7.504;2023-04-15T10:00:10;13.40;;;8.32;;
5414;SDS011;2730;51.512;7.504;2023-04-15T10:02:38;13.50;;;7.90;;
5414;SDS011;2730;51.512;7.504;2023-04-15T10:05:06;15.05;;;8.23;;
5414;SDS011;2730;51.512;7.504;2023-04-15T10:07:34;13.50;;;8.77;;
5414;SDS011;2730;51.512;7.504;2023-04-15T10:10:02;12.32;;;7.32;;
5414;SDS011;2730;51.512;7.504;2023-04-15T10:12:30;14.95;;;7.72;;
5414;SDS011;2730;51.512;7.504;2023-04-15T10:14:58;13.38;;;7.63;;
5414;SDS011;2730;51.512;7.504;2023-04-15T10:17:31;14.98;;;8.75;;
5414;SDS011;2730;51.512;7.504;2023-04-15T10:19:59;10.80;;;6.88;;
5414;SDS011;2730;51.512;7.504;2023-04-15T10:22:27;15.43;;;7.55;;
5414;SDS011;2730;51.512;7.504;2023-04-15T10:24:54;12.07;;;7.15;;
5414;SDS011;2730;51.512;7.504;2023-04-15T10:27:21;12.60;;;6.50;;
5414;SDS011;2730;51.512;7.504;2023-04-15T10:29:49;14.73;;;7.00;;
5414;SDS011;2730;51.512;7.504;2023-04-15T10:32:17;11.57;;;5.38;;
5414;SDS011;2730;51.512;7.504;2023-04-15T10:34:47;12.27;;;6.80;;
5414;SDS011;2730;51.512;7.504;2023-04-15T10:37:19;10.35;;;6.80;;
5414;SDS011;2730;51.512;7.504;2023-04-15T10:39:46;9.80;;;5.50;;
5414;SDS011;2730;51.512;7.504;2023-04-15T10:42:15;9.20;;;6.20;;
5414;SDS011;2730;51.512;7.504;2023-04-15T10:44:44;15.57;;;9.07;;
5414;SDS011;2730;51.512;7.504;2023-04-15T10:47:14;13.38;;;7.35;;
5414;SDS011;2730;51.512;7.504;2023-04-15T10:49:44;8.27;;;5.93;;
5414;SDS011;2730;51.512;7.504;2023-04-15T10:52:14;9.75;;;6.50;;
5414;SDS011;2730;51.512;7.504;2023-04-15T10:54:42;11.95;;;6.85;;
5414;SDS011;2730;51.512;7.504;2023-04-15T10:57:13;11.55;;;6.50;;
5414;SDS011;2730;51.512;7.504;2023-04-15T11:00:01;10.90;;;7.40;;
5414;SDS011;2730;51.512;7.504;2023-04-15T11:02:39;12.93;;;6.10;;
5414;SDS011;2730;51.512;7.504;2023-04-15T11:05:08;11.60;;;6.07;;
5414;SDS011;2730;51.512;7.504;2023-04-15T11:07:37;15.60;;;5.97;;
5414;SDS011;2730;51.512;7.504;2023-04-15T11:13:26;8.73;;;5.60;;
5414;SDS011;2730;51.512;7.504;2023-04-15T11:16:03;9.65;;;5.75;;
5414;SDS011;2730;51.512;7.504;2023-04-15T11:18:34;8.07;;;5.18;;
5414;SDS011;2730;51.512;7.504;2023-04-15T11:21:03;10.52;;;5.75;;
5414;SDS011;2730;51.512;7.504;2023-04-15T11:23:33;10.77;;;6.50;;
5414;SDS011;2730;51.512;7.504;2023-04-15T11:26:02;9.95;;;6.07;;
5414;SDS011;2730;51.512;7.504;2023-04-15T11:28:33;10.43;;;5.90;;
5414;SDS011;2730;51.512;7.504;2023-04-15T11:31:04;11.00;;;5.82;;
5414;SDS011;2730;51.512;7.504;2023-04-15T11:33:34;10.32;;;5.40;;
5414;SDS011;2730;51.512;7.504;2023-04-15T11:36:01;9.98;;;6.20;;
5414;SDS011;2730;51.512;7.504;2023-04-15T11:38:28;11.45;;;6.22;;
5414;SDS011;2730;51.512;7.504;2023-04-15T11:40:57;10.60;;;5.05;;
5414;SDS011;2730;51.512;7.504;2023-04-15T11:43:24;12.60;;;6.78;;
5414;SDS011;2730;51.512;7.504;2023-04-15T11:45:52;8.90;;;5.43;;
5414;SDS011;2730;51.512;7.504;2023-04-15T11:48:21;9.45;;;6.18;;
5414;SDS011;2730;51.512;7.504;2023-04-15T11:50:52;7.82;;;5.03;;
5414;SDS011;2730;51.512;7.504;2023-04-15T11:53:20;6.30;;;5.07;;
5414;SDS011;2730;51.512;7.504;2023-04-15T11:55:48;8.02;;;4.65;;
5414;SDS011;2730;51.512;7.504;2023-04-15T11:58:19;7.82;;;5.88;;
5414;SDS011;2730;51.512;7.504;2023-04-15T12:00:48;9.13;;;5.82;;
5414;SDS011;2730;51.512;7.504;2023-04-15T12:03:19;11.95;;;6.70;;
5414;SDS011;2730;51.512;7.504;2023-04-15T12:11:45;8.45;;;5.45;;
5414;SDS011;2730;51.512;7.504;2023-04-15T12:14:18;12.80;;;6.15;;
5414;SDS011;2730;51.512;7.504;2023-04-15T12:16:47;8.68;;;5.28;;
5414;SDS011;2730;51.512;7.504;2023-04-15T12:19:17;7.85;;;5.03;;
5414;SDS011;2730;51.512;7.504;2023-04-15T12:21:48;6.93;;;4.75;;
5414;SDS011;2730;51.512;7.504;2023-04-15T12:24:18;8.60;;;5.70;;
5414;SDS011;2730;51.512;7.504;2023-04-15T12:26:47;7.70;;;5.57;;
5414;SDS011;2730;51.512;7.504;2023-04-15T12:29:15;11.25;;;6.43;;
5414;SDS011;2730;51.512;7.504;2023-04-15T12:31:47;9.75;;;5.15;;
5414;SDS011;2730;51.512;7.504;2023-04-15T12:34:15;7.85;;;5.63;;
5414;SDS011;2730;51.512;7.504;2023-04-15T12:36:43;10.10;;;6.18;;
5414;SDS011;2730;51.512;7.504;2023-04-15T12:39:11;9.30;;;6.72;;
5414;SDS011;2730;51.512;7.504;2023-04-15T12:41:38;10.65;;;6.50;;
5414;SDS011;2730;51.512;7.504;2023-04-15T12:44:06;9.02;;;5.45;;
5414;SDS011;2730;51.512;7.504;2023-04-15T12:46:34;11.68;;;6.28;;
5414;SDS011;2730;51.512;7.504;2023-04-15T12:49:01;10.40;;;6.20;;
5414;SDS011;2730;51.512;7.504;2023-04-15T12:51:28;11.02;;;6.40;;
5414;SDS011;2730;51.512;7.504;2023-04-15T12:53:56;7.97;;;5.57;;
5414;SDS011;2730;51.512;7.504;2023-04-15T12:56:23;8.98;;;5.90;;
5414;SDS011;2730;51.512;7.504;2023-04-15T12:58:50;8.48;;;5.53;;
5414;SDS011;2730;51.512;7.504;2023-04-15T13:01:16;7.82;;;5.57;;
5414;SDS011;2730;51.512;7.504;2023-04-15T13:03:45;5.90;;;4.90;;
5414;SDS011;2730;51.512;7.504;2023-04-15T13:06:12;6.30;;;5.20;;
5414;SDS011;2730;51.512;7.504;2023-04-15T13:08:38;5.38;;;4.72;;
5414;SDS011;2730;51.512;7.504;2023-04-15T13:11:06;11.10;;;4.85;;
5414;SDS011;2730;51.512;7.504;2023-04-15T13:13:33;8.25;;;5.45;;
5414;SDS011;2730;51.512;7.504;2023-04-15T13:15:59;6.93;;;5.68;;
5414;SDS011;2730;51.512;7.504;2023-04-15T13:18:26;10.25;;;5.90;;
5414;SDS011;2730;51.512;7.504;2023-04-15T13:20:56;10.63;;;6.20;;
5414;SDS011;2730;51.512;7.504;2023-04-15T13:23:23;6.85;;;5.28;;
5414;SDS011;2730;51.512;7.504;2023-04-15T13:25:49;12.38;;;5.53;;
5414;SDS011;2730;51.512;7.504;2023-04-15T13:28:17;8.95;;;5.95;;
5414;SDS011;2730;51.512;7.504;2023-04-15T13:30:44;7.13;;;5.70;;
5414;SDS011;2730;51.512;7.504;2023-04-15T13:33:12;5.57;;;4.60;;
5414;SDS011;2730;51.512;7.504;2023-04-15T13:35:39;8.88;;;5.07;;
5414;SDS011;2730;51.512;7.504;2023-04-15T13:38:07;9.13;;;5.88;;
5414;SDS011;2730;51.512;7.504;2023-04-15T13:40:34;6.60;;;4.45;;
5414;SDS011;2730;51.512;7.504;2023-04-15T13:43:01;6.60;;;4.72;;
5414;SDS011;2730;51.512;7.504;2023-04-15T13:45:28;6.53;;;4.70;;
5414;SDS011;2730;51.512;7.504;2023-04-15T13:47:55;8.38;;;4.45;;
5414;SDS011;2730;51.512;7.504;2023-04-15T13:50:22;5.93;;;4.00;;
5414;SDS011;2730;51.512;7.504;2023-04-15T13:52:49;10.82;;;5.15;;
5414;SDS011;2730;51.512;7.504;2023-04-15T13:55:17;6.25;;;4.30;;
5414;SDS011;2730;51.512;7.504;2023-04-15T13:57:44;4.90;;;4.40;;
5414;SDS011;2730;51.512;7.504;2023-04-15T14:00:12;5.32;;;4.68;;
5414;SDS011;2730;51.512;7.504;2023-04-15T14:02:39;5.75;;;4.25;;
5414;SDS011;2730;51.512;7.504;2023-04-15T14:05:06;6.40;;;4.30;;
5414;SDS011;2730;51.512;7.504;2023-04-15T14:07:34;5.57;;;4.60;;
5414;SDS011;2730;51.512;7.504;2023-04-15T14:10:01;6.10;;;4.47;;
5414;SDS011;2730;51.512;7.504;2023-04-15T14:12:30;5.47;;;3.60;;
5414;SDS011;2730;51.512;7.504;2023-04-15T14:14:56;8.98;;;4.18;;
5414;SDS011;2730;51.512;7.504;2023-04-15T14:17:23;5.05;;;4.30;;
5414;SDS011;2730;51.512;7.504;2023-04-15T14:19:50;7.53;;;4.20;;
5414;SDS011;2730;51.512;7.504;2023-04-15T14:22:17;3.90;;;3.50;;
5414;SDS011;2730;51.512;7.504;2023-04-15T14:24:44;7.50;;;3.72;;
5414;SDS011;2730;51.512;7.504;2023-04-15T14:27:12;4.35;;;3.47;;
5414;SDS011;2730;51.512;7.504;2023-04-15T14:29:41;4.13;;;3.70;;
5414;SDS011;2730;51.512;7.504;2023-04-15T14:32:08;4.75;;;3.55;;
5414;SDS011;2730;51.512;7.504;2023-04-15T14:34:35;3.70;;;3.00;;
5414;SDS011;2730;51.512;7.504;2023-04-15T14:37:02;3.78;;;3.08;;
5414;SDS011;2730;51.512;7.504;2023-04-15T14:39:29;4.63;;;3.30;;
5414;SDS011;2730;51.512;7.504;2023-04-15T14:41:55;5.03;;;3.42;;
5414;SDS011;2730;51.512;7.504;2023-04-15T14:44:22;8.43;;;3.55;;
5414;SDS011;2730;51.512;7.504;2023-04-15T14:46:51;4.15;;;3.00;;
5414;SDS011;2730;51.512;7.504;2023-04-15T14:49:18;3.80;;;2.80;;
5414;SDS011;2730;51.512;7.504;2023-04-15T14:51:45;2.65;;;2.28;;
5414;SDS011;2730;51.512;7.504;2023-04-15T14:54:12;6.05;;;3.30;;
5414;SDS011;2730;51.512;7.504;2023-04-15T14:56:39;4.15;;;3.75;;
5414;SDS011;2730;51.512;7.504;2023-04-15T14:59:06;4.40;;;3.20;;
5414;SDS011;2730;51.512;7.504;2023-04-15T15:01:32;3.13;;;2.83;;
5414;SDS011;2730;51.512;7.504;2023-04-15T15:04:01;3.00;;;2.80;;
5414;SDS011;2730;51.512;7.504;2023-04-15T15:06:27;3.58;;;3.28;;
5414;SDS011;2730;51.512;7.504;2023-04-15T15:08:55;7.28;;;3.60;;